Time;durP1;ratioP1;P1;durP2;ratioP2;P2;SDS_P1;SDS_P2;PMS_P1;PMS_P2;Temp;Humidity;BMP_temperature;BMP_pressure;BME280_temperature;BME280_humidity;BME280_pressure;Samples;Min_cycle;Max_cycle;Signal;HPM_P1;HPM_P2
2023/01/02 00:00:58;;;;;;;;;;;13.80;77.10;;;;;;5047434;28;20051;-84
2023/01/02 00:03:23;;;;;;;;;;;13.80;76.60;;;;;;5046318;28;19923;-86
2023/01/02 00:05:48;;;;;;;;;;;13.80;76.40;;;;;;5031198;28;19921;-83
2023/01/02 00:08:15;;;;;;;;;;;13.90;76.40;;;;;;5041005;28;19921;-86
2023/01/02 00:10:40;;;;;;;;;;;13.80;76.80;;;;;;5023139;28;19956;-84
2023/01/02 00:13:06;;;;;;;;;;;13.80;76.90;;;;;;5018009;28;19960;-86
2023/01/02 00:15:31;;;;;;;;;;;13.70;76.80;;;;;;5046385;28;20397;-85
2023/01/02 00:17:57;;;;;;;;;;;13.70;76.90;;;;;;5029619;28;19921;-86
2023/01/02 00:20:22;;;;;;;;;;;13.80;76.80;;;;;;5019434;28;20277;-85
2023/01/02 00:22:48;;;;;;;;;;;13.90;76.60;;;;;;5015876;28;20316;-85
2023/01/02 00:25:13;;;;;;;;;;;13.90;76.40;;;;;;5020850;28;19920;-86
2023/01/02 00:27:39;;;;;;;;;;;13.90;76.40;;;;;;5020984;28;19987;-85
2023/01/02 00:30:04;;;;;;;;;;;13.90;76.00;;;;;;5036683;28;19955;-85
2023/01/02 00:32:30;;;;;;;;;;;14.00;76.00;;;;;;5025317;28;19936;-86
2023/01/02 00:34:55;;;;;;;;;;;13.90;76.50;;;;;;5047058;28;19920;-85
2023/01/02 00:37:21;;;;;;;;;;;13.90;76.10;;;;;;5025105;28;19920;-86
2023/01/02 00:39:46;;;;;;;;;;;13.90;76.60;;;;;;5059529;28;19999;-86
2023/01/02 00:42:11;;;;;;;;;;;13.90;77.00;;;;;;5027551;28;19982;-85
2023/01/02 00:44:37;;;;;;;;;;;13.90;76.80;;;;;;5022274;28;19999;-85
2023/01/02 00:47:02;;;;;;;;;;;13.90;77.10;;;;;;5046090;28;19913;-85
2023/01/02 00:49:28;;;;;;;;;;;13.90;77.20;;;;;;5021990;28;20402;-86
2023/01/02 00:51:53;;;;;;;;;;;13.90;77.20;;;;;;5022415;28;19921;-85
2023/01/02 00:54:19;;;;;;;;;;;13.90;77.10;;;;;;5044308;28;20224;-85
2023/01/02 00:56:44;;;;;;;;;;;14.00;76.90;;;;;;5024224;28;19925;-87
2023/01/02 00:59:09;;;;;;;;;;;14.00;77.00;;;;;;5043212;28;20016;-86
2023/01/02 01:01:35;;;;;;;;;;;13.90;77.40;;;;;;5022184;28;19920;-86
2023/01/02 01:04:00;;;;;;;;;;;14.00;77.90;;;;;;5038841;28;19913;-86
2023/01/02 01:06:26;;;;;;;;;;;13.90;78.40;;;;;;5046264;28;20345;-84
2023/01/02 01:08:51;;;;;;;;;;;13.90;78.90;;;;;;5016879;28;20935;-85
2023/01/02 01:11:17;;;;;;;;;;;13.80;78.50;;;;;;5016053;28;19917;-85
2023/01/02 01:13:43;;;;;;;;;;;13.80;79.20;;;;;;5018347;28;19956;-85
2023/01/02 01:16:13;;;;;;;;;;;13.70;79.90;;;;;;5017602;28;19913;-84
2023/01/02 01:18:39;;;;;;;;;;;13.70;80.20;;;;;;5037553;28;19917;-84
2023/01/02 01:21:11;;;;;;;;;;;13.60;80.70;;;;;;5011687;28;20028;-84
2023/01/02 01:23:37;;;;;;;;;;;13.60;81.20;;;;;;5039917;28;19941;-85
2023/01/02 01:26:03;;;;;;;;;;;13.60;81.70;;;;;;5039052;28;19920;-84
2023/01/02 01:28:28;;;;;;;;;;;13.50;82.30;;;;;;5031501;28;19921;-84
2023/01/02 01:30:54;;;;;;;;;;;13.40;82.70;;;;;;5021492;28;20286;-84
2023/01/02 01:33:19;;;;;;;;;;;13.30;82.90;;;;;;5019983;28;20271;-84
2023/01/02 01:35:45;;;;;;;;;;;13.30;83.30;;;;;;5010178;28;19974;-84
2023/01/02 01:38:10;;;;;;;;;;;13.20;83.50;;;;;;5026315;28;20046;-84
2023/01/02 01:40:37;;;;;;;;;;;13.20;84.40;;;;;;5035117;28;19956;-84
2023/01/02 01:43:02;;;;;;;;;;;13.10;84.60;;;;;;5014054;28;19940;-84
2023/01/02 01:45:28;;;;;;;;;;;13.10;85.00;;;;;;5017547;28;20290;-84
2023/01/02 01:47:55;;;;;;;;;;;13.10;84.60;;;;;;5017815;28;19944;-85
2023/01/02 01:50:26;;;;;;;;;;;13.10;84.60;;;;;;5014940;28;19933;-84
2023/01/02 01:52:57;;;;;;;;;;;13.10;85.10;;;;;;5023119;28;19925;-83
2023/01/02 01:55:27;;;;;;;;;;;13.10;85.00;;;;;;5054451;28;19913;-83
2023/01/02 01:57:57;;;;;;;;;;;13.00;85.70;;;;;;5038767;28;20374;-83
2023/01/02 02:00:23;;;;;;;;;;;13.00;85.90;;;;;;5043174;28;19939;-83
2023/01/02 02:02:50;;;;;;;;;;;13.00;86.00;;;;;;5045059;28;20378;-84
2023/01/02 02:05:18;;;;;;;;;;;13.00;85.70;;;;;;5040029;28;19934;-84
2023/01/02 02:07:47;;;;;;;;;;;13.00;85.40;;;;;;5025467;28;19928;-83
2023/01/02 02:10:13;;;;;;;;;;;13.00;85.80;;;;;;5025586;28;19913;-83
2023/01/02 02:12:38;;;;;;;;;;;13.00;85.30;;;;;;5039609;28;20736;-84
2023/01/02 02:15:05;;;;;;;;;;;13.10;84.70;;;;;;5029093;28;19944;-83
2023/01/02 02:17:50;;;;;;;;;;;13.20;83.50;;;;;;5050632;28;20002;-84
2023/01/02 02:20:20;;;;;;;;;;;13.20;83.80;;;;;;5047378;28;19913;-83
2023/01/02 02:23:12;;;;;;;;;;;13.20;83.80;;;;;;5039837;28;19913;-83
2023/01/02 02:25:37;;;;;;;;;;;13.30;83.10;;;;;;5038911;28;19955;-83
2023/01/02 02:28:23;;;;;;;;;;;13.10;83.40;;;;;;5036887;28;19944;-83
2023/01/02 02:30:57;;;;;;;;;;;13.10;83.50;;;;;;5041410;28;19917;-83
2023/01/02 02:33:41;;;;;;;;;;;13.10;83.70;;;;;;5023470;28;19943;-83
2023/01/02 02:36:13;;;;;;;;;;;13.10;83.10;;;;;;5038946;28;20369;-83
2023/01/02 02:38:57;;;;;;;;;;;13.20;83.30;;;;;;5019700;28;20326;-83
2023/01/02 02:41:45;;;;;;;;;;;13.20;82.90;;;;;;5038749;28;19917;-83
2023/01/02 02:44:14;;;;;;;;;;;13.20;82.90;;;;;;5045519;28;19979;-84
2023/01/02 02:46:39;;;;;;;;;;;13.20;82.50;;;;;;5037820;28;19921;-83
2023/01/02 02:49:07;;;;;;;;;;;13.10;83.10;;;;;;5038853;28;19920;-83
2023/01/02 02:51:40;;;;;;;;;;;13.10;83.10;;;;;;5024108;28;19955;-83
2023/01/02 02:54:15;;;;;;;;;;;13.10;82.80;;;;;;5017454;28;19924;-83
2023/01/02 02:56:42;;;;;;;;;;;13.20;82.50;;;;;;5040208;28;20071;-82
2023/01/02 02:59:08;;;;;;;;;;;13.20;82.40;;;;;;5040269;28;19967;-83
2023/01/02 03:01:34;;;;;;;;;;;13.20;82.20;;;;;;5039952;28;20012;-84
2023/01/02 03:04:00;;;;;;;;;;;13.20;82.30;;;;;;5023201;28;19914;-83
2023/01/02 03:06:38;;;;;;;;;;;13.30;82.70;;;;;;5023596;28;19912;-83
2023/01/02 03:09:06;;;;;;;;;;;13.10;82.50;;;;;;5057751;28;19912;-83
2023/01/02 03:11:41;;;;;;;;;;;13.10;83.20;;;;;;5027550;28;19917;-82
2023/01/02 03:14:09;;;;;;;;;;;13.10;83.30;;;;;;5021196;28;20335;-82
2023/01/02 03:16:39;;;;;;;;;;;13.10;83.50;;;;;;5042830;28;19923;-83
2023/01/02 03:19:06;;;;;;;;;;;13.10;83.50;;;;;;5031522;28;19913;-83
2023/01/02 03:21:43;;;;;;;;;;;13.10;83.30;;;;;;5059304;28;19913;-84
2023/01/02 03:24:11;;;;;;;;;;;13.10;83.50;;;;;;5022261;28;19913;-84
2023/01/02 03:26:38;;;;;;;;;;;13.10;83.60;;;;;;5029582;28;19913;-83
2023/01/02 03:29:09;;;;;;;;;;;13.10;83.50;;;;;;5019064;28;20370;-83
2023/01/02 03:31:36;;;;;;;;;;;13.00;83.30;;;;;;5018659;28;19920;-84
2023/01/02 03:34:05;;;;;;;;;;;13.00;84.10;;;;;;5040615;28;20373;-84
2023/01/02 03:36:32;;;;;;;;;;;13.10;83.30;;;;;;5041540;28;19916;-83
2023/01/02 03:39:03;;;;;;;;;;;13.10;83.30;;;;;;5030703;28;19943;-83
2023/01/02 03:41:31;;;;;;;;;;;13.10;83.60;;;;;;5047426;28;20287;-84
2023/01/02 03:43:59;;;;;;;;;;;13.10;83.50;;;;;;5042586;28;19943;-84
2023/01/02 03:46:28;;;;;;;;;;;13.00;84.10;;;;;;5032010;28;19913;-84
2023/01/02 03:49:02;;;;;;;;;;;13.00;84.50;;;;;;5041814;28;20066;-83
2023/01/02 03:51:28;;;;;;;;;;;12.90;84.40;;;;;;5025003;28;19921;-83
2023/01/02 03:53:53;;;;;;;;;;;12.90;85.10;;;;;;5025033;28;19940;-83
2023/01/02 03:56:28;;;;;;;;;;;12.90;85.00;;;;;;5035398;28;19924;-83
2023/01/02 03:58:57;;;;;;;;;;;12.80;85.10;;;;;;5049926;28;19952;-84
2023/01/02 04:01:32;;;;;;;;;;;12.70;85.50;;;;;;5019897;28;21153;-84
2023/01/02 04:04:16;;;;;;;;;;;12.80;85.80;;;;;;5039357;28;20024;-84
2023/01/02 04:06:44;;;;;;;;;;;12.70;86.00;;;;;;5030183;28;19996;-84
2023/01/02 04:09:12;;;;;;;;;;;12.80;86.00;;;;;;5039947;28;20003;-84
2023/01/02 04:11:40;;;;;;;;;;;12.70;86.20;;;;;;5036290;28;19920;-83
2023/01/02 04:14:11;;;;;;;;;;;12.60;86.20;;;;;;5032505;28;19944;-83
2023/01/02 04:16:37;;;;;;;;;;;12.60;86.50;;;;;;5037172;28;20362;-83
2023/01/02 04:19:08;;;;;;;;;;;12.60;86.80;;;;;;5016080;28;20005;-83
2023/01/02 04:21:36;;;;;;;;;;;12.60;86.40;;;;;;5029179;28;19916;-83
2023/01/02 04:24:05;;;;;;;;;;;12.60;86.40;;;;;;5019163;28;19913;-83
2023/01/02 04:26:33;;;;;;;;;;;12.60;86.00;;;;;;5015060;28;19917;-83
2023/01/02 04:28:59;;;;;;;;;;;12.60;86.60;;;;;;5036489;28;19917;-84
2023/01/02 04:31:34;;;;;;;;;;;12.50;86.60;;;;;;5017743;28;19948;-83
2023/01/02 04:34:01;;;;;;;;;;;12.50;86.70;;;;;;5021742;28;20051;-83
2023/01/02 04:36:26;;;;;;;;;;;12.50;86.30;;;;;;5030530;28;19913;-83
2023/01/02 04:38:52;;;;;;;;;;;12.50;86.60;;;;;;5024132;28;19923;-83
2023/01/02 04:41:25;;;;;;;;;;;12.50;86.30;;;;;;5048188;28;19964;-84
2023/01/02 04:43:54;;;;;;;;;;;12.50;86.50;;;;;;5043256;28;19912;-83
2023/01/02 04:46:20;;;;;;;;;;;12.50;86.10;;;;;;5036765;28;19913;-83
2023/01/02 04:48:45;;;;;;;;;;;12.50;85.90;;;;;;5026215;28;19992;-84
2023/01/02 04:51:11;;;;;;;;;;;12.50;86.10;;;;;;5027347;28;19901;-83
2023/01/02 04:53:36;;;;;;;;;;;12.50;85.20;;;;;;5033506;28;19917;-83
2023/01/02 04:56:02;;;;;;;;;;;12.60;85.10;;;;;;5027432;28;19912;-83
2023/01/02 04:58:27;;;;;;;;;;;12.50;85.60;;;;;;5039683;28;19923;-83
2023/01/02 05:00:53;;;;;;;;;;;12.60;85.20;;;;;;5043514;28;20427;-83
2023/01/02 05:03:18;;;;;;;;;;;12.60;85.40;;;;;;5039159;28;20058;-84
2023/01/02 05:05:44;;;;;;;;;;;12.60;84.80;;;;;;5018462;28;19920;-83
2023/01/02 05:08:09;;;;;;;;;;;12.60;84.60;;;;;;5053158;28;20390;-83
2023/01/02 05:10:35;;;;;;;;;;;12.60;84.60;;;;;;5036215;28;19921;-83
2023/01/02 05:13:00;;;;;;;;;;;12.70;84.50;;;;;;5014580;28;19913;-83
2023/01/02 05:15:26;;;;;;;;;;;12.60;84.30;;;;;;5037627;28;19917;-83
2023/01/02 05:17:52;;;;;;;;;;;12.60;84.90;;;;;;5019998;28;19923;-83
2023/01/02 05:20:17;;;;;;;;;;;12.60;84.00;;;;;;5044052;28;19913;-84
2023/01/02 05:25:30;;;;;;;;;;;12.70;83.50;;;;;;5041665;28;19927;-83
2023/01/02 05:27:55;;;;;;;;;;;12.80;82.70;;;;;;5027677;28;19980;-83
2023/01/02 05:30:21;;;;;;;;;;;12.80;82.80;;;;;;5026736;28;20462;-83
2023/01/02 05:32:47;;;;;;;;;;;12.90;82.70;;;;;;5020962;28;19920;-83
2023/01/02 05:35:12;;;;;;;;;;;13.00;81.80;;;;;;5026870;28;20463;-83
2023/01/02 05:37:38;;;;;;;;;;;12.90;82.60;;;;;;5042680;28;19936;-84
2023/01/02 05:40:04;;;;;;;;;;;12.90;82.60;;;;;;5034770;28;20421;-84
2023/01/02 05:42:29;;;;;;;;;;;12.90;82.80;;;;;;5042086;28;19994;-84
2023/01/02 05:44:54;;;;;;;;;;;12.80;83.40;;;;;;5042471;28;20378;-83
2023/01/02 05:47:20;;;;;;;;;;;12.90;82.40;;;;;;5046537;28;19913;-83
2023/01/02 05:49:45;;;;;;;;;;;13.00;81.70;;;;;;5039424;28;20464;-83
2023/01/02 05:52:11;;;;;;;;;;;12.90;82.30;;;;;;5045008;28;19957;-83
2023/01/02 05:54:36;;;;;;;;;;;12.90;82.30;;;;;;5050775;28;19921;-82
2023/01/02 05:57:02;;;;;;;;;;;12.90;82.10;;;;;;5043353;28;19935;-83
2023/01/02 05:59:27;;;;;;;;;;;12.90;82.50;;;;;;5046282;28;19979;-83
2023/01/02 06:01:53;;;;;;;;;;;12.80;82.50;;;;;;5021450;28;19996;-82
2023/01/02 06:04:18;;;;;;;;;;;12.80;82.90;;;;;;5022756;28;19913;-83
2023/01/02 06:06:44;;;;;;;;;;;12.90;82.60;;;;;;5029603;28;19920;-83
2023/01/02 06:09:13;;;;;;;;;;;12.90;82.50;;;;;;5029451;28;19920;-83
2023/01/02 06:11:38;;;;;;;;;;;13.00;82.50;;;;;;5040926;28;19980;-83
2023/01/02 06:14:03;;;;;;;;;;;12.90;82.30;;;;;;5048946;28;20370;-83
2023/01/02 06:16:29;;;;;;;;;;;12.90;82.20;;;;;;5027030;28;19982;-83
2023/01/02 06:18:55;;;;;;;;;;;13.00;82.10;;;;;;5039982;28;20540;-83
2023/01/02 06:21:20;;;;;;;;;;;12.90;82.10;;;;;;5042872;28;19917;-83
2023/01/02 06:23:46;;;;;;;;;;;13.00;82.40;;;;;;5055852;28;19913;-82
2023/01/02 06:26:16;;;;;;;;;;;12.90;82.30;;;;;;5043050;28;19916;-82
2023/01/02 06:28:42;;;;;;;;;;;13.00;82.10;;;;;;5026576;28;20569;-82
2023/01/02 06:31:09;;;;;;;;;;;12.90;82.30;;;;;;5037383;28;19921;-83
2023/01/02 06:33:35;;;;;;;;;;;12.90;82.50;;;;;;5024765;28;20454;-83
2023/01/02 06:36:02;;;;;;;;;;;12.80;82.90;;;;;;5039097;28;19999;-83
2023/01/02 06:38:28;;;;;;;;;;;12.80;82.80;;;;;;5043076;28;19924;-82
2023/01/02 06:40:57;;;;;;;;;;;12.90;82.70;;;;;;5025153;28;19912;-82
2023/01/02 06:43:23;;;;;;;;;;;12.80;82.50;;;;;;5019605;28;20016;-85
2023/01/02 06:45:48;;;;;;;;;;;12.70;82.90;;;;;;5049327;28;19960;-83
2023/01/02 06:48:15;;;;;;;;;;;12.90;82.60;;;;;;5040941;28;19951;-83
2023/01/02 06:50:40;;;;;;;;;;;12.90;82.30;;;;;;5020062;28;19921;-83
2023/01/02 06:53:06;;;;;;;;;;;12.90;82.20;;;;;;5028359;28;19913;-84
2023/01/02 06:55:31;;;;;;;;;;;13.00;82.00;;;;;;5027451;28;20043;-83
2023/01/02 06:57:57;;;;;;;;;;;12.90;82.30;;;;;;5019153;28;19921;-83
2023/01/02 07:00:22;;;;;;;;;;;12.90;82.60;;;;;;5018528;28;20608;-84
2023/01/02 07:02:47;;;;;;;;;;;12.90;82.70;;;;;;5021180;28;19921;-83
2023/01/02 07:05:13;;;;;;;;;;;12.80;83.00;;;;;;5034583;28;19913;-83
2023/01/02 07:07:39;;;;;;;;;;;12.80;82.90;;;;;;5047506;28;19924;-83
2023/01/02 07:10:04;;;;;;;;;;;12.90;83.10;;;;;;5030231;28;19924;-83
2023/01/02 07:12:30;;;;;;;;;;;12.80;83.20;;;;;;5034605;28;19913;-83
2023/01/02 07:14:55;;;;;;;;;;;12.80;83.30;;;;;;5017536;28;19967;-83
2023/01/02 07:17:20;;;;;;;;;;;12.80;83.60;;;;;;5049658;28;19917;-84
2023/01/02 07:19:46;;;;;;;;;;;12.80;83.90;;;;;;5036914;28;19984;-84
2023/01/02 07:22:11;;;;;;;;;;;12.80;83.50;;;;;;5024348;28;20355;-83
2023/01/02 07:24:37;;;;;;;;;;;12.80;83.50;;;;;;5028144;28;20328;-84
2023/01/02 07:27:03;;;;;;;;;;;12.80;83.40;;;;;;5026718;28;19948;-84
2023/01/02 07:29:28;;;;;;;;;;;12.80;83.20;;;;;;5041217;28;19951;-84
2023/01/02 07:31:54;;;;;;;;;;;12.80;83.00;;;;;;5036288;28;19913;-83
2023/01/02 07:34:19;;;;;;;;;;;12.80;83.60;;;;;;5029165;28;19947;-83
2023/01/02 07:36:45;;;;;;;;;;;12.80;83.40;;;;;;5049073;28;19921;-84
2023/01/02 07:39:10;;;;;;;;;;;12.80;83.30;;;;;;5039752;28;19956;-84
2023/01/02 07:41:35;;;;;;;;;;;12.80;83.70;;;;;;5018364;28;19912;-84
2023/01/02 07:44:01;;;;;;;;;;;12.80;83.30;;;;;;5036312;28;19916;-83
2023/01/02 07:46:26;;;;;;;;;;;12.80;83.70;;;;;;5039509;28;19921;-84
2023/01/02 07:48:52;;;;;;;;;;;12.80;83.80;;;;;;5034433;28;19913;-83
2023/01/02 07:51:17;;;;;;;;;;;12.80;84.00;;;;;;5013994;28;19923;-85
2023/01/02 07:53:44;;;;;;;;;;;12.80;84.20;;;;;;5037653;28;19963;-85
2023/01/02 07:56:09;;;;;;;;;;;12.70;84.70;;;;;;5046516;28;20035;-84
2023/01/02 07:58:35;;;;;;;;;;;12.70;84.90;;;;;;5041922;28;19980;-84
2023/01/02 08:01:11;;;;;;;;;;;12.60;85.30;;;;;;5026182;28;19925;-84
2023/01/02 08:03:37;;;;;;;;;;;12.60;85.50;;;;;;5042177;28;20017;-85
2023/01/02 08:06:04;;;;;;;;;;;12.60;85.60;;;;;;5026234;28;19982;-84
2023/01/02 08:08:30;;;;;;;;;;;12.60;86.10;;;;;;5036744;28;20359;-84
2023/01/02 08:10:55;;;;;;;;;;;12.60;86.10;;;;;;5026336;28;19921;-85
2023/01/02 08:13:20;;;;;;;;;;;12.60;86.10;;;;;;5048074;28;19920;-85
2023/01/02 08:15:46;;;;;;;;;;;12.60;86.00;;;;;;5032502;28;19920;-85
2023/01/02 08:18:11;;;;;;;;;;;12.50;86.30;;;;;;5042567;28;19917;-85
2023/01/02 08:20:37;;;;;;;;;;;12.60;86.50;;;;;;5044663;28;19991;-86
2023/01/02 08:23:02;;;;;;;;;;;12.50;86.50;;;;;;5026270;28;19914;-85
2023/01/02 08:25:28;;;;;;;;;;;12.50;86.70;;;;;;5052240;28;20003;-85
2023/01/02 08:27:53;;;;;;;;;;;12.60;86.60;;;;;;5044497;28;19913;-85
2023/01/02 08:30:19;;;;;;;;;;;12.50;86.70;;;;;;5049212;28;19913;-86
2023/01/02 08:32:44;;;;;;;;;;;12.50;86.80;;;;;;5037142;28;19917;-86
2023/01/02 08:35:10;;;;;;;;;;;12.50;86.90;;;;;;5020089;28;19913;-86
2023/01/02 08:37:35;;;;;;;;;;;12.40;87.10;;;;;;5055569;28;19919;-86
2023/01/02 08:40:01;;;;;;;;;;;12.40;87.30;;;;;;5029351;28;19928;-85
2023/01/02 08:42:26;;;;;;;;;;;12.50;87.00;;;;;;5027584;28;19913;-86
2023/01/02 08:44:52;;;;;;;;;;;12.40;87.30;;;;;;5052057;28;19959;-85
2023/01/02 08:47:18;;;;;;;;;;;12.40;87.40;;;;;;5047672;28;19920;-87
2023/01/02 08:49:43;;;;;;;;;;;12.40;87.70;;;;;;5018415;28;19920;-86
2023/01/02 08:52:09;;;;;;;;;;;12.40;87.70;;;;;;5044766;28;20528;-87
2023/01/02 08:54:34;;;;;;;;;;;12.30;87.90;;;;;;5047143;28;20555;-85
2023/01/02 08:57:00;;;;;;;;;;;12.30;88.00;;;;;;5041808;28;19905;-86
2023/01/02 08:59:25;;;;;;;;;;;12.30;88.10;;;;;;5057670;28;19920;-86
2023/01/02 09:01:51;;;;;;;;;;;12.40;88.30;;;;;;5038562;28;19913;-86
2023/01/02 09:04:17;;;;;;;;;;;12.30;88.40;;;;;;5023667;28;19921;-85
2023/01/02 09:06:42;;;;;;;;;;;12.40;88.40;;;;;;5049084;28;19996;-85
2023/01/02 09:09:09;;;;;;;;;;;12.30;88.50;;;;;;5045905;28;19935;-85
2023/01/02 09:11:35;;;;;;;;;;;12.30;88.70;;;;;;5037915;28;19923;-84
2023/01/02 09:14:01;;;;;;;;;;;12.20;88.80;;;;;;5038381;28;19932;-85
2023/01/02 09:16:27;;;;;;;;;;;12.20;88.80;;;;;;5052804;28;19921;-85
2023/01/02 09:18:54;;;;;;;;;;;12.20;89.00;;;;;;5023592;28;19928;-86
2023/01/02 09:21:19;;;;;;;;;;;12.10;88.50;;;;;;5050705;28;19920;-86
2023/01/02 09:23:45;;;;;;;;;;;11.90;88.70;;;;;;5027511;28;19917;-85
2023/01/02 09:26:11;;;;;;;;;;;11.70;88.00;;;;;;5025042;28;19947;-86
2023/01/02 09:28:36;;;;;;;;;;;11.50;88.00;;;;;;5027914;28;20838;-86
2023/01/02 09:31:06;;;;;;;;;;;11.40;88.40;;;;;;5025331;28;19995;-85
2023/01/02 09:33:32;;;;;;;;;;;11.40;89.10;;;;;;5027548;28;19913;-85
2023/01/02 09:36:04;;;;;;;;;;;11.40;89.40;;;;;;5048898;28;19926;-84
2023/01/02 09:38:30;;;;;;;;;;;11.40;89.40;;;;;;5031616;28;20008;-84
2023/01/02 09:40:57;;;;;;;;;;;11.50;89.70;;;;;;5030663;28;19992;-84
2023/01/02 09:43:28;;;;;;;;;;;11.40;89.90;;;;;;5045219;28;19916;-84
2023/01/02 09:45:54;;;;;;;;;;;11.40;90.00;;;;;;5026144;28;19995;-84
2023/01/02 09:48:21;;;;;;;;;;;11.50;89.50;;;;;;5031837;28;20356;-85
2023/01/02 09:50:48;;;;;;;;;;;11.50;89.70;;;;;;5029230;28;20350;-84
2023/01/02 09:53:14;;;;;;;;;;;11.50;89.70;;;;;;5054894;28;19927;-85
2023/01/02 09:55:54;;;;;;;;;;;11.50;89.60;;;;;;5044211;28;19939;-85
2023/01/02 09:58:40;;;;;;;;;;;11.50;89.40;;;;;;5043427;28;19932;-86
2023/01/02 10:01:10;;;;;;;;;;;11.60;88.80;;;;;;5016054;28;19917;-83
2023/01/02 10:03:44;;;;;;;;;;;11.50;89.20;;;;;;5033509;28;19917;-83
2023/01/02 10:06:24;;;;;;;;;;;11.60;89.40;;;;;;5029425;28;20379;-85
2023/01/02 10:09:03;;;;;;;;;;;11.50;88.50;;;;;;5040678;28;19913;-83
2023/01/02 10:11:35;;;;;;;;;;;11.50;88.60;;;;;;5039811;28;19917;-83
2023/01/02 10:14:20;;;;;;;;;;;11.30;88.20;;;;;;5031050;28;19920;-84
2023/01/02 10:16:51;;;;;;;;;;;11.30;88.10;;;;;;5023364;28;19912;-84
2023/01/02 10:19:23;;;;;;;;;;;11.30;88.30;;;;;;5028371;28;20004;-84
2023/01/02 10:21:51;;;;;;;;;;;11.30;87.90;;;;;;5038032;28;19912;-84
2023/01/02 10:24:19;;;;;;;;;;;11.20;87.90;;;;;;5050128;28;19921;-84
2023/01/02 10:26:47;;;;;;;;;;;11.20;88.10;;;;;;5046906;28;19967;-83
2023/01/02 10:29:22;;;;;;;;;;;11.20;88.60;;;;;;5028642;28;19921;-84
2023/01/02 10:31:54;;;;;;;;;;;11.30;88.30;;;;;;5048094;28;19920;-81
2023/01/02 10:34:21;;;;;;;;;;;11.30;88.20;;;;;;5046049;28;19959;-85
2023/01/02 10:36:47;;;;;;;;;;;11.30;88.50;;;;;;5058313;28;19920;-85
2023/01/02 10:39:20;;;;;;;;;;;11.20;88.60;;;;;;5038942;28;19920;-84
2023/01/02 10:41:49;;;;;;;;;;;11.20;88.50;;;;;;5041152;28;19908;-85
2023/01/02 10:44:34;;;;;;;;;;;11.10;88.10;;;;;;5057598;28;19971;-84
2023/01/02 10:47:25;;;;;;;;;;;11.10;88.20;;;;;;5031643;28;19921;-85
2023/01/02 10:49:52;;;;;;;;;;;11.10;88.40;;;;;;5036102;28;19920;-85
2023/01/02 10:52:23;;;;;;;;;;;11.10;88.00;;;;;;5022623;28;19920;-85
2023/01/02 10:54:53;;;;;;;;;;;11.10;87.80;;;;;;5038988;28;19923;-85
2023/01/02 10:57:32;;;;;;;;;;;11.10;87.50;;;;;;5035141;28;19927;-86
2023/01/02 10:59:59;;;;;;;;;;;11.10;87.20;;;;;;5037619;28;19947;-85
2023/01/02 11:02:29;;;;;;;;;;;11.10;87.30;;;;;;5036433;28;20401;-85
2023/01/02 11:04:58;;;;;;;;;;;11.10;87.40;;;;;;5056760;28;19987;-85
2023/01/02 11:07:24;;;;;;;;;;;11.10;87.60;;;;;;5033372;28;19916;-84
2023/01/02 11:09:54;;;;;;;;;;;11.20;87.30;;;;;;5058082;28;20343;-85
2023/01/02 11:12:19;;;;;;;;;;;11.10;87.60;;;;;;5055677;28;20371;-84
2023/01/02 11:14:44;;;;;;;;;;;11.10;88.00;;;;;;5036236;28;19917;-85
2023/01/02 11:17:14;;;;;;;;;;;11.10;87.90;;;;;;5043329;28;20379;-85
2023/01/02 11:19:41;;;;;;;;;;;11.20;87.90;;;;;;5033434;28;19970;-85
2023/01/02 11:22:07;;;;;;;;;;;11.30;87.80;;;;;;5023092;28;20344;-86
2023/01/02 11:24:34;;;;;;;;;;;11.30;87.60;;;;;;5050907;28;19920;-85
2023/01/02 11:27:00;;;;;;;;;;;11.30;87.90;;;;;;5039132;28;19925;-85
2023/01/02 11:29:33;;;;;;;;;;;11.30;88.00;;;;;;5032873;28;19930;-85
2023/01/02 11:32:00;;;;;;;;;;;11.30;88.00;;;;;;5034876;28;20012;-86
2023/01/02 11:34:33;;;;;;;;;;;11.30;87.70;;;;;;5028891;28;19917;-85
2023/01/02 11:37:02;;;;;;;;;;;11.40;87.60;;;;;;5042624;28;19924;-86
2023/01/02 11:39:29;;;;;;;;;;;11.30;87.40;;;;;;5038569;28;19920;-85
2023/01/02 11:45:10;;;;;;;;;;;11.30;87.10;;;;;;5058724;28;19920;-85
2023/01/02 11:47:39;;;;;;;;;;;11.40;86.90;;;;;;5035953;28;19916;-84
2023/01/02 11:50:05;;;;;;;;;;;11.40;87.20;;;;;;5026416;28;20347;-85
2023/01/02 11:52:41;;;;;;;;;;;11.40;87.30;;;;;;5041235;28;20648;-85
2023/01/02 11:55:07;;;;;;;;;;;11.50;87.10;;;;;;5034142;28;19943;-85
2023/01/02 11:57:38;;;;;;;;;;;11.40;87.20;;;;;;5026846;22;19930;-76
2023/01/02 12:00:09;;;;;;;;;;;11.40;87.30;;;;;;4983005;28;19922;-76
2023/01/02 12:02:40;;;;;;;;;;;11.40;87.50;;;;;;4992017;28;19917;-76
2023/01/02 12:05:08;;;;;;;;;;;11.30;87.60;;;;;;5002089;28;19921;-77
2023/01/02 12:07:41;;;;;;;;;;;11.40;87.50;;;;;;5002523;28;19914;-77
2023/01/02 12:10:25;;;;;;;;;;;11.40;87.60;;;;;;4984562;28;20643;-78
2023/01/02 12:13:00;;;;;;;;;;;11.40;87.40;;;;;;5010309;28;19917;-76
2023/01/02 12:15:26;;;;;;;;;;;11.30;87.50;;;;;;5010463;28;19917;-78
2023/01/02 12:17:57;;;;;;;;;;;11.30;87.50;;;;;;5008364;28;19967;-77
2023/01/02 12:20:39;;;;;;;;;;;11.30;87.20;;;;;;4991685;28;19918;-77
2023/01/02 12:23:27;;;;;;;;;;;11.30;87.50;;;;;;4995226;28;19932;-76
2023/01/02 12:25:57;;;;;;;;;;;11.10;87.80;;;;;;5003461;28;19921;-78
2023/01/02 12:28:23;;;;;;;;;;;11.20;88.10;;;;;;5011271;28;19914;-78
2023/01/02 12:31:12;;;;;;;;;;;11.30;88.10;;;;;;5008442;28;19939;-77
2023/01/02 12:33:40;;;;;;;;;;;11.30;87.80;;;;;;5010136;28;20000;-77
2023/01/02 12:36:15;;;;;;;;;;;11.30;87.50;;;;;;4982769;28;19913;-76
2023/01/02 12:38:59;;;;;;;;;;;11.30;87.40;;;;;;4991668;28;19921;-77
2023/01/02 12:41:28;;;;;;;;;;;11.30;87.60;;;;;;5001732;28;19917;-77
2023/01/02 12:44:12;;;;;;;;;;;11.30;87.50;;;;;;5003049;28;20032;-78
2023/01/02 12:46:44;;;;;;;;;;;11.30;87.30;;;;;;4999453;28;19917;-77
2023/01/02 12:49:13;;;;;;;;;;;11.40;87.10;;;;;;5001021;28;19959;-76
2023/01/02 12:51:50;;;;;;;;;;;11.40;87.70;;;;;;4990358;28;20288;-77
2023/01/02 12:54:38;;;;;;;;;;;11.30;87.10;;;;;;5000875;28;19926;-85
2023/01/02 12:57:04;;;;;;;;;;;11.20;87.30;;;;;;4987700;28;19914;-86
2023/01/02 12:59:40;;;;;;;;;;;11.30;86.90;;;;;;4986370;28;20576;-81
2023/01/02 13:02:24;;;;;;;;;;;11.20;87.40;;;;;;5004525;28;20300;-80
2023/01/02 13:04:53;;;;;;;;;;;11.20;87.40;;;;;;4991846;28;19923;-79
2023/01/02 13:07:28;;;;;;;;;;;11.20;87.80;;;;;;5004006;28;19914;-79
2023/01/02 13:09:55;;;;;;;;;;;11.20;87.70;;;;;;4993760;28;19999;-79
2023/01/02 13:12:25;;;;;;;;;;;11.20;87.40;;;;;;4992889;28;20289;-80
2023/01/02 13:14:56;;;;;;;;;;;11.30;87.10;;;;;;5007033;28;19967;-78
2023/01/02 13:17:40;;;;;;;;;;;11.30;87.10;;;;;;5015651;28;19971;-82
2023/01/02 13:20:11;;;;;;;;;;;11.30;87.20;;;;;;4993759;28;19918;-78
2023/01/02 13:22:43;;;;;;;;;;;11.20;87.60;;;;;;4989243;28;20607;-76
2023/01/02 13:25:16;;;;;;;;;;;11.20;87.60;;;;;;4998368;28;19924;-77
2023/01/02 13:27:43;;;;;;;;;;;11.30;87.40;;;;;;4994557;28;20281;-77
2023/01/02 13:30:27;;;;;;;;;;;11.30;86.90;;;;;;5004705;28;19918;-76
2023/01/02 13:32:55;;;;;;;;;;;11.20;87.40;;;;;;4996308;28;20063;-76
2023/01/02 13:35:21;;;;;;;;;;;11.30;86.70;;;;;;4995900;28;19918;-76
2023/01/02 13:37:46;;;;;;;;;;;11.20;86.40;;;;;;4993810;28;20411;-75
2023/01/02 13:40:25;;;;;;;;;;;11.30;86.40;;;;;;4999590;28;20285;-78
2023/01/02 13:42:58;;;;;;;;;;;11.30;85.80;;;;;;4997379;28;20343;-78
2023/01/02 13:45:28;;;;;;;;;;;11.30;85.80;;;;;;5008192;28;19975;-77
2023/01/02 13:47:57;;;;;;;;;;;11.30;85.90;;;;;;4989211;28;20277;-77
2023/01/02 13:50:27;;;;;;;;;;;11.30;85.30;;;;;;4988032;28;19914;-77
2023/01/02 13:53:08;;;;;;;;;;;11.30;84.80;;;;;;4998139;28;20044;-77
2023/01/02 13:55:35;;;;;;;;;;;11.20;85.60;;;;;;5005490;28;19929;-77
2023/01/02 13:58:19;;;;;;;;;;;11.30;85.40;;;;;;5009207;28;19933;-77
2023/01/02 14:00:51;;;;;;;;;;;11.20;85.70;;;;;;5002492;28;19952;-77
2023/01/02 14:03:20;;;;;;;;;;;11.30;85.60;;;;;;5005620;28;20292;-78
2023/01/02 14:05:57;;;;;;;;;;;11.20;85.70;;;;;;4984410;28;19918;-79
2023/01/02 14:08:27;;;;;;;;;;;11.30;85.80;;;;;;5000374;28;20346;-78
2023/01/02 14:11:13;;;;;;;;;;;11.30;85.90;;;;;;5003178;28;19993;-78
2023/01/02 14:13:44;;;;;;;;;;;11.20;85.10;;;;;;4984343;28;19937;-78
2023/01/02 14:16:17;;;;;;;;;;;11.10;85.20;;;;;;5001567;28;21145;-79
2023/01/02 14:18:44;;;;;;;;;;;11.10;85.20;;;;;;4998972;28;19972;-78
2023/01/02 14:21:10;;;;;;;;;;;11.10;85.30;;;;;;4997645;28;19972;-78
2023/01/02 14:23:41;;;;;;;;;;;11.00;85.20;;;;;;5006909;28;19945;-78
2023/01/02 14:26:19;;;;;;;;;;;11.10;85.50;;;;;;5006517;28;19914;-78
2023/01/02 14:28:49;;;;;;;;;;;11.10;85.70;;;;;;5007215;28;19980;-78
2023/01/02 14:31:16;;;;;;;;;;;11.10;85.40;;;;;;4987329;28;19921;-78